sensor_id;sensor_type;location;lat;lon;timestamp;pressure;altitude;pressure_sealevel;temperature;humidity
16030;BME280;34770;49.272;11.070;2022-07-21T00:01:07;97986.69;;;24.26;61.69
16030;BME280;34770;49.272;11.070;2022-07-21T00:03:33;97984.72;;;24.23;61.75
16030;BME280;34770;49.272;11.070;2022-07-21T00:05:58;97967.69;;;24.40;61.13
16030;BME280;34770;49.272;11.070;2022-07-21T00:08:23;97968.91;;;24.55;61.18
16030;BME280;34770;49.272;11.070;2022-07-21T00:10:49;97967.31;;;24.54;60.92
16030;BME280;34770;49.272;11.070;2022-07-21T00:13:15;97961.09;;;24.26;61.59
16030;BME280;34770;49.272;11.070;2022-07-21T00:15:40;97949.97;;;23.99;62.52
16030;BME280;34770;49.272;11.070;2022-07-21T00:18:05;97964.25;;;23.95;63.30
16030;BME280;34770;49.272;11.070;2022-07-21T00:20:31;97954.50;;;23.96;63.19
16030;BME280;34770;49.272;11.070;2022-07-21T00:22:58;97955.88;;;23.88;63.94
16030;BME280;34770;49.272;11.070;2022-07-21T00:25:24;97940.97;;;23.84;64.33
16030;BME280;34770;49.272;11.070;2022-07-21T00:27:49;97931.75;;;23.96;63.82
16030;BME280;34770;49.272;11.070;2022-07-21T00:30:15;97905.72;;;23.98;63.88
16030;BME280;34770;49.272;11.070;2022-07-21T00:32:41;97883.03;;;23.61;65.36
16030;BME280;34770;49.272;11.070;2022-07-21T00:35:09;97883.31;;;23.83;64.51
16030;BME280;34770;49.272;11.070;2022-07-21T00:37:35;97900.94;;;24.11;67.83
16030;BME280;34770;49.272;11.070;2022-07-21T00:40:00;97899.38;;;23.73;72.87
16030;BME280;34770;49.272;11.070;2022-07-21T00:42:27;97872.53;;;23.58;73.13
16030;BME280;34770;49.272;11.070;2022-07-21T00:44:54;97848.66;;;23.55;81.48
16030;BME280;34770;49.272;11.070;2022-07-21T00:47:20;97844.75;;;23.13;82.02
16030;BME280;34770;49.272;11.070;2022-07-21T00:49:47;97856.84;;;22.97;86.73
16030;BME280;34770;49.272;11.070;2022-07-21T00:52:12;97868.28;;;22.93;94.01
16030;BME280;34770;49.272;11.070;2022-07-21T00:54:38;97864.19;;;22.74;94.06
16030;BME280;34770;49.272;11.070;2022-07-21T00:57:05;97866.28;;;22.02;93.04
16030;BME280;34770;49.272;11.070;2022-07-21T00:59:31;97829.03;;;21.52;100.00
16030;BME280;34770;49.272;11.070;2022-07-21T01:01:56;97799.16;;;21.75;100.00
16030;BME280;34770;49.272;11.070;2022-07-21T01:04:22;97875.97;;;21.23;100.00
16030;BME280;34770;49.272;11.070;2022-07-21T01:06:48;97897.81;;;21.22;100.00
16030;BME280;34770;49.272;11.070;2022-07-21T01:09:14;97887.19;;;21.30;100.00
16030;BME280;34770;49.272;11.070;2022-07-21T01:11:39;97855.47;;;21.42;100.00
16030;BME280;34770;49.272;11.070;2022-07-21T01:14:06;97862.03;;;21.35;100.00
16030;BME280;34770;49.272;11.070;2022-07-21T01:16:31;97842.63;;;20.76;100.00
16030;BME280;34770;49.272;11.070;2022-07-21T01:18:57;97856.88;;;20.65;100.00
16030;BME280;34770;49.272;11.070;2022-07-21T01:21:35;97856.69;;;20.83;100.00
16030;BME280;34770;49.272;11.070;2022-07-21T01:24:02;97846.88;;;20.56;100.00
16030;BME280;34770;49.272;11.070;2022-07-21T01:26:29;97855.03;;;20.47;100.00
16030;BME280;34770;49.272;11.070;2022-07-21T01:28:55;97851.06;;;20.41;100.00
16030;BME280;34770;49.272;11.070;2022-07-21T01:31:21;97844.25;;;20.38;100.00
16030;BME280;34770;49.272;11.070;2022-07-21T01:33:47;97841.88;;;20.33;100.00
16030;BME280;34770;49.272;11.070;2022-07-21T01:36:13;97839.94;;;20.23;100.00
16030;BME280;34770;49.272;11.070;2022-07-21T01:38:38;97840.66;;;20.34;100.00
16030;BME280;34770;49.272;11.070;2022-07-21T01:41:22;97855.19;;;20.33;100.00
16030;BME280;34770;49.272;11.070;2022-07-21T01:44:03;97856.50;;;20.21;100.00
16030;BME280;34770;49.272;11.070;2022-07-21T01:46:31;97851.19;;;19.88;100.00
16030;BME280;34770;49.272;11.070;2022-07-21T01:48:57;97861.03;;;20.11;100.00
16030;BME280;34770;49.272;11.070;2022-07-21T01:51:23;97866.75;;;20.04;100.00
16030;BME280;34770;49.272;11.070;2022-07-21T01:53:48;97861.56;;;19.99;100.00
16030;BME280;34770;49.272;11.070;2022-07-21T01:56:14;97860.78;;;19.98;100.00
16030;BME280;34770;49.272;11.070;2022-07-21T01:58:39;97862.34;;;20.03;100.00
16030;BME280;34770;49.272;11.070;2022-07-21T02:01:05;97853.03;;;20.06;100.00
16030;BME280;34770;49.272;11.070;2022-07-21T02:03:30;97846.59;;;20.05;100.00
16030;BME280;34770;49.272;11.070;2022-07-21T02:06:05;97846.28;;;19.92;100.00
16030;BME280;34770;49.272;11.070;2022-07-21T02:08:31;97841.28;;;20.11;100.00
16030;BME280;34770;49.272;11.070;2022-07-21T02:10:57;97858.22;;;20.11;100.00
16030;BME280;34770;49.272;11.070;2022-07-21T02:13:23;97873.66;;;20.03;100.00
16030;BME280;34770;49.272;11.070;2022-07-21T02:15:48;97869.75;;;19.82;100.00
16030;BME280;34770;49.272;11.070;2022-07-21T02:18:14;97877.22;;;19.54;100.00
16030;BME280;34770;49.272;11.070;2022-07-21T02:20:39;97862.09;;;19.26;100.00
16030;BME280;34770;49.272;11.070;2022-07-21T02:23:05;97865.59;;;19.45;100.00
16030;BME280;34770;49.272;11.070;2022-07-21T02:25:30;97874.88;;;19.42;100.00
16030;BME280;34770;49.272;11.070;2022-07-21T02:27:56;97871.22;;;19.45;100.00
16030;BME280;34770;49.272;11.070;2022-07-21T02:30:21;97855.00;;;19.60;100.00
16030;BME280;34770;49.272;11.070;2022-07-21T02:32:47;97865.00;;;19.72;100.00
16030;BME280;34770;49.272;11.070;2022-07-21T02:35:12;97868.94;;;19.85;100.00
16030;BME280;34770;49.272;11.070;2022-07-21T02:37:38;97876.34;;;19.65;100.00
16030;BME280;34770;49.272;11.070;2022-07-21T02:40:04;97887.63;;;19.65;100.00
16030;BME280;34770;49.272;11.070;2022-07-21T02:42:30;97892.13;;;19.58;100.00
16030;BME280;34770;49.272;11.070;2022-07-21T02:44:55;97876.50;;;19.39;100.00
16030;BME280;34770;49.272;11.070;2022-07-21T02:47:21;97899.44;;;19.49;100.00
16030;BME280;34770;49.272;11.070;2022-07-21T02:49:46;97915.50;;;19.55;100.00
16030;BME280;34770;49.272;11.070;2022-07-21T02:52:12;97881.31;;;19.46;100.00
16030;BME280;34770;49.272;11.070;2022-07-21T02:54:38;97911.78;;;19.73;100.00
16030;BME280;34770;49.272;11.070;2022-07-21T02:57:03;97916.91;;;19.92;100.00
16030;BME280;34770;49.272;11.070;2022-07-21T02:59:28;97924.94;;;19.98;100.00
16030;BME280;34770;49.272;11.070;2022-07-21T03:01:54;97916.78;;;20.07;100.00
16030;BME280;34770;49.272;11.070;2022-07-21T03:04:19;97924.28;;;20.24;100.00
16030;BME280;34770;49.272;11.070;2022-07-21T03:06:45;97908.53;;;20.31;100.00
16030;BME280;34770;49.272;11.070;2022-07-21T03:09:10;97919.63;;;20.49;100.00
16030;BME280;34770;49.272;11.070;2022-07-21T03:11:36;97934.72;;;20.35;100.00
16030;BME280;34770;49.272;11.070;2022-07-21T03:14:01;97945.81;;;20.11;100.00
16030;BME280;34770;49.272;11.070;2022-07-21T03:16:27;97945.34;;;20.20;100.00
16030;BME280;34770;49.272;11.070;2022-07-21T03:18:52;97955.78;;;20.27;100.00
16030;BME280;34770;49.272;11.070;2022-07-21T03:21:18;97965.59;;;20.07;100.00
16030;BME280;34770;49.272;11.070;2022-07-21T03:23:43;97972.22;;;19.86;100.00
16030;BME280;34770;49.272;11.070;2022-07-21T03:26:15;97979.44;;;19.95;100.00
16030;BME280;34770;49.272;11.070;2022-07-21T03:28:41;97968.44;;;20.04;100.00
16030;BME280;34770;49.272;11.070;2022-07-21T03:31:07;97972.88;;;20.08;100.00
16030;BME280;34770;49.272;11.070;2022-07-21T03:33:33;97995.13;;;20.03;100.00
16030;BME280;34770;49.272;11.070;2022-07-21T03:35:58;98032.22;;;20.01;100.00
16030;BME280;34770;49.272;11.070;2022-07-21T03:38:25;98029.91;;;19.89;100.00
16030;BME280;34770;49.272;11.070;2022-07-21T03:40:50;97999.28;;;19.76;100.00
16030;BME280;34770;49.272;11.070;2022-07-21T03:43:16;98016.19;;;19.91;100.00
16030;BME280;34770;49.272;11.070;2022-07-21T03:45:41;98030.56;;;20.07;100.00
16030;BME280;34770;49.272;11.070;2022-07-21T03:48:08;98023.22;;;20.21;100.00
16030;BME280;34770;49.272;11.070;2022-07-21T03:50:39;98009.41;;;20.34;100.00
16030;BME280;34770;49.272;11.070;2022-07-21T03:53:05;98024.00;;;20.29;100.00
16030;BME280;34770;49.272;11.070;2022-07-21T03:55:32;98028.06;;;20.24;100.00
16030;BME280;34770;49.272;11.070;2022-07-21T03:58:00;98011.78;;;20.39;100.00
16030;BME280;34770;49.272;11.070;2022-07-21T04:00:36;98009.81;;;20.36;100.00
16030;BME280;34770;49.272;11.070;2022-07-21T04:03:02;98018.16;;;20.50;100.00
16030;BME280;34770;49.272;11.070;2022-07-21T04:05:28;98019.91;;;20.33;100.00
16030;BME280;34770;49.272;11.070;2022-07-21T04:07:54;98017.63;;;20.10;100.00
16030;BME280;34770;49.272;11.070;2022-07-21T04:10:23;98004.66;;;20.23;100.00
16030;BME280;34770;49.272;11.070;2022-07-21T04:12:53;98015.72;;;20.52;100.00
16030;BME280;34770;49.272;11.070;2022-07-21T04:15:19;98003.97;;;20.58;100.00
16030;BME280;34770;49.272;11.070;2022-07-21T04:17:45;98021.03;;;20.47;100.00
16030;BME280;34770;49.272;11.070;2022-07-21T04:20:12;98020.69;;;20.37;100.00
16030;BME280;34770;49.272;11.070;2022-07-21T04:22:39;98048.78;;;20.59;100.00
16030;BME280;34770;49.272;11.070;2022-07-21T04:25:05;98054.34;;;20.70;100.00
16030;BME280;34770;49.272;11.070;2022-07-21T04:27:31;98056.03;;;20.64;100.00
16030;BME280;34770;49.272;11.070;2022-07-21T04:29:57;98053.59;;;20.62;100.00
16030;BME280;34770;49.272;11.070;2022-07-21T04:32:22;98061.22;;;20.72;100.00
16030;BME280;34770;49.272;11.070;2022-07-21T04:34:48;98069.63;;;20.80;100.00
16030;BME280;34770;49.272;11.070;2022-07-21T04:37:13;98052.66;;;20.80;100.00
16030;BME280;34770;49.272;11.070;2022-07-21T04:39:38;98049.72;;;20.94;100.00
16030;BME280;34770;49.272;11.070;2022-07-21T04:42:04;98054.16;;;20.95;100.00
16030;BME280;34770;49.272;11.070;2022-07-21T04:44:29;98061.09;;;20.87;100.00
16030;BME280;34770;49.272;11.070;2022-07-21T04:46:55;98052.59;;;20.87;100.00
16030;BME280;34770;49.272;11.070;2022-07-21T04:49:20;98060.59;;;20.96;100.00
16030;BME280;34770;49.272;11.070;2022-07-21T04:51:45;98088.47;;;20.97;100.00
16030;BME280;34770;49.272;11.070;2022-07-21T04:54:11;98089.88;;;20.78;100.00
16030;BME280;34770;49.272;11.070;2022-07-21T04:56:40;98078.59;;;20.71;100.00
16030;BME280;34770;49.272;11.070;2022-07-21T04:59:06;98078.91;;;20.80;100.00
16030;BME280;34770;49.272;11.070;2022-07-21T05:01:31;98067.31;;;20.64;100.00
16030;BME280;34770;49.272;11.070;2022-07-21T05:03:56;98064.88;;;20.66;100.00
16030;BME280;34770;49.272;11.070;2022-07-21T05:06:22;98077.41;;;20.72;100.00
16030;BME280;34770;49.272;11.070;2022-07-21T05:08:47;98056.03;;;20.60;100.00
16030;BME280;34770;49.272;11.070;2022-07-21T05:11:13;98080.16;;;20.79;100.00
16030;BME280;34770;49.272;11.070;2022-07-21T05:13:38;98071.78;;;20.61;100.00
16030;BME280;34770;49.272;11.070;2022-07-21T05:16:04;98084.63;;;20.69;100.00
16030;BME280;34770;49.272;11.070;2022-07-21T05:18:29;98085.56;;;20.55;100.00
16030;BME280;34770;49.272;11.070;2022-07-21T05:20:55;98085.06;;;20.68;100.00
16030;BME280;34770;49.272;11.070;2022-07-21T05:23:20;98097.25;;;20.61;100.00
16030;BME280;34770;49.272;11.070;2022-07-21T05:28:11;98122.84;;;20.39;100.00
16030;BME280;34770;49.272;11.070;2022-07-21T05:30:36;98119.22;;;20.32;100.00
16030;BME280;34770;49.272;11.070;2022-07-21T05:33:02;98139.00;;;20.32;100.00
16030;BME280;34770;49.272;11.070;2022-07-21T05:35:27;98115.31;;;20.11;100.00
16030;BME280;34770;49.272;11.070;2022-07-21T05:37:53;98136.63;;;20.27;100.00
16030;BME280;34770;49.272;11.070;2022-07-21T05:40:18;98139.91;;;20.18;100.00
16030;BME280;34770;49.272;11.070;2022-07-21T05:42:43;98149.22;;;20.11;100.00
16030;BME280;34770;49.272;11.070;2022-07-21T05:45:09;98153.59;;;20.27;100.00
16030;BME280;34770;49.272;11.070;2022-07-21T05:47:35;98146.25;;;20.36;100.00
16030;BME280;34770;49.272;11.070;2022-07-21T05:50:00;98147.03;;;20.44;100.00
16030;BME280;34770;49.272;11.070;2022-07-21T05:52:26;98147.41;;;20.46;100.00
16030;BME280;34770;49.272;11.070;2022-07-21T05:54:52;98129.97;;;20.59;100.00
16030;BME280;34770;49.272;11.070;2022-07-21T05:57:17;98124.31;;;20.59;100.00
16030;BME280;34770;49.272;11.070;2022-07-21T05:59:44;98130.72;;;20.66;100.00
16030;BME280;34770;49.272;11.070;2022-07-21T06:02:09;98131.88;;;20.76;100.00
16030;BME280;34770;49.272;11.070;2022-07-21T06:04:35;98122.72;;;20.58;100.00
16030;BME280;34770;49.272;11.070;2022-07-21T06:07:00;98121.91;;;20.57;100.00
16030;BME280;34770;49.272;11.070;2022-07-21T06:09:26;98124.38;;;20.51;100.00
16030;BME280;34770;49.272;11.070;2022-07-21T06:11:51;98137.41;;;20.34;100.00
16030;BME280;34770;49.272;11.070;2022-07-21T06:14:17;98140.19;;;20.38;100.00
16030;BME280;34770;49.272;11.070;2022-07-21T06:16:42;98141.34;;;20.51;100.00
16030;BME280;34770;49.272;11.070;2022-07-21T06:19:08;98139.25;;;20.59;100.00
16030;BME280;34770;49.272;11.070;2022-07-21T06:21:33;98142.56;;;20.50;100.00
16030;BME280;34770;49.272;11.070;2022-07-21T06:23:59;98141.63;;;20.64;100.00
16030;BME280;34770;49.272;11.070;2022-07-21T06:26:25;98141.53;;;20.82;100.00
16030;BME280;34770;49.272;11.070;2022-07-21T06:28:51;98114.16;;;20.72;100.00
16030;BME280;34770;49.272;11.070;2022-07-21T06:31:16;98138.16;;;20.98;100.00
16030;BME280;34770;49.272;11.070;2022-07-21T06:33:42;98140.66;;;20.93;100.00
16030;BME280;34770;49.272;11.070;2022-07-21T06:36:07;98126.97;;;20.84;100.00
16030;BME280;34770;49.272;11.070;2022-07-21T06:38:33;98122.03;;;20.95;100.00
16030;BME280;34770;49.272;11.070;2022-07-21T06:40:59;98135.66;;;21.08;100.00
16030;BME280;34770;49.272;11.070;2022-07-21T06:43:24;98141.41;;;20.97;100.00
16030;BME280;34770;49.272;11.070;2022-07-21T06:45:50;98143.84;;;20.95;100.00
16030;BME280;34770;49.272;11.070;2022-07-21T06:48:16;98149.53;;;20.91;100.00
16030;BME280;34770;49.272;11.070;2022-07-21T06:50:41;98142.06;;;21.15;100.00
16030;BME280;34770;49.272;11.070;2022-07-21T06:53:07;98143.47;;;21.38;100.00
16030;BME280;34770;49.272;11.070;2022-07-21T06:55:33;98132.53;;;21.40;100.00
16030;BME280;34770;49.272;11.070;2022-07-21T06:58:08;98123.84;;;21.62;100.00
16030;BME280;34770;49.272;11.070;2022-07-21T07:00:33;98133.47;;;21.68;100.00
16030;BME280;34770;49.272;11.070;2022-07-21T07:03:00;98106.19;;;21.43;100.00
16030;BME280;34770;49.272;11.070;2022-07-21T07:05:26;98123.25;;;21.36;100.00
16030;BME280;34770;49.272;11.070;2022-07-21T07:07:53;98141.78;;;21.44;100.00
16030;BME280;34770;49.272;11.070;2022-07-21T07:10:18;98135.59;;;21.57;100.00
16030;BME280;34770;49.272;11.070;2022-07-21T07:12:43;98132.81;;;21.49;100.00
16030;BME280;34770;49.272;11.070;2022-07-21T07:15:09;98113.34;;;21.59;100.00
16030;BME280;34770;49.272;11.070;2022-07-21T07:17:34;98150.44;;;21.72;100.00
16030;BME280;34770;49.272;11.070;2022-07-21T07:20:00;98156.69;;;21.90;100.00
16030;BME280;34770;49.272;11.070;2022-07-21T07:22:25;98149.56;;;22.09;100.00
16030;BME280;34770;49.272;11.070;2022-07-21T07:24:51;98161.75;;;22.06;100.00
16030;BME280;34770;49.272;11.070;2022-07-21T07:27:16;98172.84;;;21.93;100.00
16030;BME280;34770;49.272;11.070;2022-07-21T07:29:42;98167.84;;;22.05;100.00
16030;BME280;34770;49.272;11.070;2022-07-21T07:32:07;98178.69;;;22.44;100.00
16030;BME280;34770;49.272;11.070;2022-07-21T07:34:33;98167.06;;;22.66;100.00
16030;BME280;34770;49.272;11.070;2022-07-21T07:36:58;98178.19;;;22.81;99.43
16030;BME280;34770;49.272;11.070;2022-07-21T07:39:23;98188.78;;;22.49;100.00
16030;BME280;34770;49.272;11.070;2022-07-21T07:41:49;98193.13;;;22.23;100.00
16030;BME280;34770;49.272;11.070;2022-07-21T07:44:14;98195.28;;;21.77;100.00
16030;BME280;34770;49.272;11.070;2022-07-21T07:46:40;98209.47;;;21.31;100.00
16030;BME280;34770;49.272;11.070;2022-07-21T07:49:05;98203.78;;;21.35;100.00
16030;BME280;34770;49.272;11.070;2022-07-21T07:51:30;98204.25;;;21.23;100.00
16030;BME280;34770;49.272;11.070;2022-07-21T07:53:56;98192.94;;;21.23;100.00
16030;BME280;34770;49.272;11.070;2022-07-21T07:56:21;98190.91;;;21.27;100.00
16030;BME280;34770;49.272;11.070;2022-07-21T07:58:46;98185.59;;;21.29;100.00
16030;BME280;34770;49.272;11.070;2022-07-21T08:01:12;98184.06;;;21.24;100.00
16030;BME280;34770;49.272;11.070;2022-07-21T08:03:37;98188.22;;;21.09;100.00
16030;BME280;34770;49.272;11.070;2022-07-21T08:06:03;98184.66;;;21.46;100.00
16030;BME280;34770;49.272;11.070;2022-07-21T08:08:32;98171.63;;;21.52;100.00
16030;BME280;34770;49.272;11.070;2022-07-21T08:10:57;98182.53;;;21.96;100.00
16030;BME280;34770;49.272;11.070;2022-07-21T08:13:23;98171.25;;;22.23;100.00
16030;BME280;34770;49.272;11.070;2022-07-21T08:15:49;98179.31;;;21.94;100.00
16030;BME280;34770;49.272;11.070;2022-07-21T08:18:16;98186.31;;;22.17;98.53
16030;BME280;34770;49.272;11.070;2022-07-21T08:20:43;98183.63;;;22.37;95.69
16030;BME280;34770;49.272;11.070;2022-07-21T08:23:08;98176.00;;;23.16;93.66
16030;BME280;34770;49.272;11.070;2022-07-21T08:25:34;98177.81;;;23.02;90.57
16030;BME280;34770;49.272;11.070;2022-07-21T08:28:00;98175.28;;;22.57;90.19
16030;BME280;34770;49.272;11.070;2022-07-21T08:30:25;98178.53;;;22.83;90.68
16030;BME280;34770;49.272;11.070;2022-07-21T08:32:51;98191.66;;;22.45;91.63
16030;BME280;34770;49.272;11.070;2022-07-21T08:35:16;98182.56;;;22.58;92.54
16030;BME280;34770;49.272;11.070;2022-07-21T08:37:41;98173.41;;;22.46;91.18
16030;BME280;34770;49.272;11.070;2022-07-21T08:40:10;98202.41;;;23.13;90.56
16030;BME280;34770;49.272;11.070;2022-07-21T08:42:36;98205.41;;;22.74;88.59
16030;BME280;34770;49.272;11.070;2022-07-21T08:45:03;98209.19;;;22.95;86.24
16030;BME280;34770;49.272;11.070;2022-07-21T08:47:28;98207.41;;;22.77;87.33
16030;BME280;34770;49.272;11.070;2022-07-21T08:49:55;98200.59;;;22.71;87.26
16030;BME280;34770;49.272;11.070;2022-07-21T08:52:20;98207.00;;;22.48;88.05
16030;BME280;34770;49.272;11.070;2022-07-21T08:54:46;98199.94;;;22.29;89.11
16030;BME280;34770;49.272;11.070;2022-07-21T08:57:11;98212.44;;;22.66;89.61
16030;BME280;34770;49.272;11.070;2022-07-21T08:59:37;98208.31;;;22.98;89.78
16030;BME280;34770;49.272;11.070;2022-07-21T09:02:03;98212.25;;;23.32;87.86
16030;BME280;34770;49.272;11.070;2022-07-21T09:04:31;98204.03;;;23.37;84.90
16030;BME280;34770;49.272;11.070;2022-07-21T09:07:02;98212.06;;;23.19;85.94
16030;BME280;34770;49.272;11.070;2022-07-21T09:09:30;98188.19;;;23.13;82.16
16030;BME280;34770;49.272;11.070;2022-07-21T09:11:56;98209.13;;;23.70;80.18
16030;BME280;34770;49.272;11.070;2022-07-21T09:14:24;98209.97;;;23.47;80.22
16030;BME280;34770;49.272;11.070;2022-07-21T09:16:53;98204.91;;;23.34;80.94
16030;BME280;34770;49.272;11.070;2022-07-21T09:19:24;98209.78;;;23.34;82.81
16030;BME280;34770;49.272;11.070;2022-07-21T09:21:52;98202.19;;;23.27;81.51
16030;BME280;34770;49.272;11.070;2022-07-21T09:30:01;98196.91;;;23.73;80.14
16030;BME280;34770;49.272;11.070;2022-07-21T09:32:30;98198.81;;;24.60;76.16
16030;BME280;34770;49.272;11.070;2022-07-21T09:35:10;98197.28;;;24.92;73.41
16030;BME280;34770;49.272;11.070;2022-07-21T09:37:39;98195.16;;;24.80;73.88
16030;BME280;34770;49.272;11.070;2022-07-21T09:40:14;98176.91;;;25.76;72.51
16030;BME280;34770;49.272;11.070;2022-07-21T09:42:48;98198.97;;;26.02;69.19
16030;BME280;34770;49.272;11.070;2022-07-21T09:45:16;98196.19;;;25.39;69.47
16030;BME280;34770;49.272;11.070;2022-07-21T09:47:43;98166.91;;;26.14;69.13
16030;BME280;34770;49.272;11.070;2022-07-21T09:50:10;98193.97;;;26.35;65.79
16030;BME280;34770;49.272;11.070;2022-07-21T09:52:47;98177.22;;;25.78;67.13
16030;BME280;34770;49.272;11.070;2022-07-21T09:55:16;98175.78;;;25.57;69.56
16030;BME280;34770;49.272;11.070;2022-07-21T09:57:43;98192.88;;;25.08;68.17
16030;BME280;34770;49.272;11.070;2022-07-21T10:00:12;98189.41;;;25.00;70.15
16030;BME280;34770;49.272;11.070;2022-07-21T10:02:38;98188.84;;;24.52;71.07
16030;BME280;34770;49.272;11.070;2022-07-21T10:05:12;98184.75;;;24.53;71.39
16030;BME280;34770;49.272;11.070;2022-07-21T10:07:43;98193.47;;;24.05;72.36
16030;BME280;34770;49.272;11.070;2022-07-21T10:10:10;98176.53;;;24.38;71.94
16030;BME280;34770;49.272;11.070;2022-07-21T10:12:36;98178.97;;;24.93;69.06
16030;BME280;34770;49.272;11.070;2022-07-21T10:15:02;98175.59;;;25.15;68.10
16030;BME280;34770;49.272;11.070;2022-07-21T10:17:28;98166.56;;;25.66;67.12
16030;BME280;34770;49.272;11.070;2022-07-21T10:19:57;98172.44;;;26.05;64.67
16030;BME280;34770;49.272;11.070;2022-07-21T10:24:59;98175.97;;;25.79;65.20
16030;BME280;34770;49.272;11.070;2022-07-21T10:27:25;98178.88;;;25.30;66.96
16030;BME280;34770;49.272;11.070;2022-07-21T10:29:56;98187.06;;;24.95;68.21
16030;BME280;34770;49.272;11.070;2022-07-21T10:32:24;98181.28;;;24.82;67.92
16030;BME280;34770;49.272;11.070;2022-07-21T10:34:52;98173.56;;;25.32;66.89
16030;BME280;34770;49.272;11.070;2022-07-21T10:45:35;98175.31;;;26.60;62.34
16030;BME280;34770;49.272;11.070;2022-07-21T10:48:03;98171.09;;;26.09;63.77
16030;BME280;34770;49.272;11.070;2022-07-21T10:50:30;98180.88;;;25.79;64.11
16030;BME280;34770;49.272;11.070;2022-07-21T10:52:58;98175.97;;;25.17;65.28
16030;BME280;34770;49.272;11.070;2022-07-21T10:55:24;98177.84;;;25.07;66.30
16030;BME280;34770;49.272;11.070;2022-07-21T11:00:49;98165.03;;;24.99;66.67
16030;BME280;34770;49.272;11.070;2022-07-21T11:11:34;98168.00;;;25.58;62.79
16030;BME280;34770;49.272;11.070;2022-07-21T11:24:58;98155.31;;;26.73;55.24
16030;BME280;34770;49.272;11.070;2022-07-21T11:27:26;98126.09;;;26.30;54.87
16030;BME280;34770;49.272;11.070;2022-07-21T11:29:55;98150.94;;;27.33;53.72
16030;BME280;34770;49.272;11.070;2022-07-21T11:32:22;98150.38;;;27.25;52.47
16030;BME280;34770;49.272;11.070;2022-07-21T11:34:59;98150.91;;;26.98;51.17
16030;BME280;34770;49.272;11.070;2022-07-21T11:37:38;98143.03;;;26.76;50.40
16030;BME280;34770;49.272;11.070;2022-07-21T11:40:19;98142.34;;;27.46;51.33
16030;BME280;34770;49.272;11.070;2022-07-21T11:42:51;98144.03;;;26.56;51.05
16030;BME280;34770;49.272;11.070;2022-07-21T11:45:17;98148.22;;;27.16;50.64
16030;BME280;34770;49.272;11.070;2022-07-21T11:47:42;98136.09;;;27.95;49.76
16030;BME280;34770;49.272;11.070;2022-07-21T11:50:10;98119.19;;;27.66;48.98
16030;BME280;34770;49.272;11.070;2022-07-21T11:52:38;98136.75;;;27.42;49.06
16030;BME280;34770;49.272;11.070;2022-07-21T11:55:06;98130.63;;;28.64;46.94
16030;BME280;34770;49.272;11.070;2022-07-21T11:57:31;98109.97;;;29.19;45.89
16030;BME280;34770;49.272;11.070;2022-07-21T11:59:58;98116.19;;;29.27;44.20
16030;BME280;34770;49.272;11.070;2022-07-21T12:02:26;98099.75;;;30.30;44.97
16030;BME280;34770;49.272;11.070;2022-07-21T12:04:53;98095.38;;;30.01;44.15
16030;BME280;34770;49.272;11.070;2022-07-21T12:07:20;98093.50;;;30.40;42.82
16030;BME280;34770;49.272;11.070;2022-07-21T12:09:49;98106.13;;;29.04;45.55
16030;BME280;34770;49.272;11.070;2022-07-21T12:12:14;98098.56;;;29.56;44.44
16030;BME280;34770;49.272;11.070;2022-07-21T12:14:51;98099.66;;;29.50;44.57
16030;BME280;34770;49.272;11.070;2022-07-21T12:17:32;98091.25;;;28.77;44.03
16030;BME280;34770;49.272;11.070;2022-07-21T12:19:58;98092.69;;;28.10;45.98
16030;BME280;34770;49.272;11.070;2022-07-21T12:22:44;98093.59;;;28.38;44.34
16030;BME280;34770;49.272;11.070;2022-07-21T12:25:12;98086.63;;;29.58;43.95
16030;BME280;34770;49.272;11.070;2022-07-21T12:27:40;98070.38;;;29.73;43.08
16030;BME280;34770;49.272;11.070;2022-07-21T12:30:07;98092.19;;;29.71;42.33
16030;BME280;34770;49.272;11.070;2022-07-21T12:35:22;98081.50;;;29.99;41.44
16030;BME280;34770;49.272;11.070;2022-07-21T12:38:15;98085.03;;;29.75;41.19
16030;BME280;34770;49.272;11.070;2022-07-21T12:40:44;98084.53;;;29.77;40.48
16030;BME280;34770;49.272;11.070;2022-07-21T12:43:18;98086.56;;;29.11;42.37
16030;BME280;34770;49.272;11.070;2022-07-21T12:45:50;98086.72;;;28.67;43.11
16030;BME280;34770;49.272;11.070;2022-07-21T12:48:21;98092.78;;;29.28;41.23
16030;BME280;34770;49.272;11.070;2022-07-21T12:53:47;98086.78;;;29.73;40.54
16030;BME280;34770;49.272;11.070;2022-07-21T12:56:16;98081.38;;;29.94;41.24
16030;BME280;34770;49.272;11.070;2022-07-21T12:58:43;98070.97;;;30.05;40.16
16030;BME280;34770;49.272;11.070;2022-07-21T13:01:09;98061.09;;;29.79;40.75
16030;BME280;34770;49.272;11.070;2022-07-21T13:03:35;98089.66;;;29.73;41.06
16030;BME280;34770;49.272;11.070;2022-07-21T13:06:02;98084.31;;;28.56;43.43
16030;BME280;34770;49.272;11.070;2022-07-21T13:08:28;98088.13;;;28.22;43.86
16030;BME280;34770;49.272;11.070;2022-07-21T13:10:54;98081.88;;;28.14;44.81
16030;BME280;34770;49.272;11.070;2022-07-21T13:13:20;98070.13;;;28.43;43.65
16030;BME280;34770;49.272;11.070;2022-07-21T13:15:45;98064.28;;;29.25;42.71
16030;BME280;34770;49.272;11.070;2022-07-21T13:18:11;98058.13;;;30.77;40.24
16030;BME280;34770;49.272;11.070;2022-07-21T13:20:36;98051.56;;;29.63;40.39
16030;BME280;34770;49.272;11.070;2022-07-21T13:23:01;98070.66;;;29.29;40.74
16030;BME280;34770;49.272;11.070;2022-07-21T13:25:27;98055.16;;;30.62;40.34
16030;BME280;34770;49.272;11.070;2022-07-21T13:27:53;98049.44;;;31.74;37.16
16030;BME280;34770;49.272;11.070;2022-07-21T13:30:18;98044.84;;;30.46;38.72